Time;durP1;ratioP1;P1;durP2;ratioP2;P2;SDS_P1;SDS_P2;PMS_P1;PMS_P2;Temp;Humidity;BMP_temperature;BMP_pressure;BME280_temperature;BME280_humidity;BME280_pressure;Samples;Min_cycle;Max_cycle;Signal;HPM_P1;HPM_P2
2023/11/10 00:02:25;;;;;;;8.93;1.60;;;25.10;26.50;;;;;;4968531;28;20061;-61
2023/11/10 00:04:51;;;;;;;7.78;1.52;;;25.00;26.70;;;;;;4967357;28;20087;-60
2023/11/10 00:07:19;;;;;;;6.35;1.50;;;24.90;27.10;;;;;;4968087;28;20073;-61
2023/11/10 00:09:46;;;;;;;5.25;1.42;;;24.70;26.70;;;;;;4969734;28;20073;-61
2023/11/10 00:12:14;;;;;;;9.18;1.42;;;24.60;26.80;;;;;;4968931;28;20087;-62
2023/11/10 00:14:41;;;;;;;9.82;1.30;;;24.60;27.10;;;;;;4967364;28;20075;-62
2023/11/10 00:17:10;;;;;;;11.57;1.30;;;24.50;27.40;;;;;;4968504;28;20074;-62
2023/11/10 00:19:38;;;;;;;10.45;1.65;;;24.40;27.60;;;;;;4967911;28;20074;-62
2023/11/10 00:22:09;;;;;;;15.95;1.80;;;24.40;28.00;;;;;;4969110;28;20069;-60
2023/11/10 00:24:39;;;;;;;6.18;1.63;;;24.30;28.00;;;;;;4968999;28;20146;-60
2023/11/10 00:27:10;;;;;;;8.52;1.58;;;24.30;28.40;;;;;;4968697;28;20077;-61
2023/11/10 00:29:44;;;;;;;20.05;1.85;;;24.10;28.90;;;;;;4968897;28;20204;-62
2023/11/10 00:32:11;;;;;;;8.63;1.63;;;24.00;29.10;;;;;;4967905;28;20081;-61
2023/11/10 00:34:38;;;;;;;10.20;1.23;;;23.90;29.30;;;;;;4969098;28;20127;-59
2023/11/10 00:37:05;;;;;;;14.85;2.38;;;23.80;29.40;;;;;;4969141;28;20537;-60
2023/11/10 00:39:31;;;;;;;14.13;2.00;;;23.70;29.70;;;;;;4968386;28;20092;-60
2023/11/10 00:41:59;;;;;;;12.43;1.63;;;23.60;30.00;;;;;;4968045;28;20700;-60
2023/11/10 00:44:27;;;;;;;15.13;1.60;;;23.50;30.20;;;;;;4967721;28;20123;-60
2023/11/10 00:46:54;;;;;;;6.75;1.60;;;23.50;30.30;;;;;;4967967;28;20159;-60
2023/11/10 00:49:21;;;;;;;11.55;1.73;;;23.40;30.60;;;;;;4968615;28;20110;-61
2023/11/10 00:51:48;;;;;;;9.48;1.80;;;23.30;30.40;;;;;;4968239;28;20557;-60
2023/11/10 00:54:16;;;;;;;15.27;2.08;;;23.30;30.20;;;;;;4966682;28;20082;-62
2023/11/10 00:56:43;;;;;;;10.98;1.95;;;23.20;30.30;;;;;;4968098;28;20080;-61
2023/11/10 00:59:10;;;;;;;6.57;2.00;;;23.10;30.50;;;;;;4966231;28;20553;-60
2023/11/10 01:01:37;;;;;;;14.95;2.25;;;23.00;30.40;;;;;;4966303;28;20091;-63
2023/11/10 01:04:04;;;;;;;19.65;2.35;;;23.00;30.70;;;;;;4965882;28;20089;-61
2023/11/10 01:06:31;;;;;;;29.55;2.83;;;22.90;30.50;;;;;;4967090;28;20805;-63
2023/11/10 01:08:58;;;;;;;17.80;2.60;;;22.80;30.50;;;;;;4967910;28;20086;-63
2023/11/10 01:11:25;;;;;;;16.75;2.28;;;22.80;30.50;;;;;;4966976;28;20154;-62
2023/11/10 01:13:52;;;;;;;14.13;2.50;;;22.70;30.60;;;;;;4967133;28;20119;-64
2023/11/10 01:16:19;;;;;;;10.85;2.30;;;22.60;30.70;;;;;;4967152;28;20558;-62
2023/11/10 01:18:46;;;;;;;21.00;2.80;;;22.50;30.70;;;;;;4964867;28;20191;-63
2023/11/10 01:21:12;;;;;;;16.77;4.47;;;22.50;30.80;;;;;;4964886;28;20181;-59
2023/11/10 01:23:39;;;;;;;13.75;3.75;;;22.40;31.00;;;;;;4966073;28;20149;-62
2023/11/10 01:26:06;;;;;;;22.25;4.80;;;22.40;31.30;;;;;;4966227;28;20182;-62
2023/11/10 01:28:33;;;;;;;21.52;3.83;;;22.30;31.30;;;;;;4966814;28;20138;-62
2023/11/10 01:30:59;;;;;;;15.30;3.22;;;22.30;31.50;;;;;;4964714;28;20098;-63
2023/11/10 01:33:26;;;;;;;28.80;8.60;;;22.20;31.50;;;;;;4967743;28;20086;-63
2023/11/10 01:35:52;;;;;;;16.38;2.90;;;22.20;31.70;;;;;;4963635;28;20078;-62
2023/11/10 01:38:19;;;;;;;11.40;2.35;;;22.10;31.90;;;;;;4965474;28;20077;-61
2023/11/10 01:40:46;;;;;;;21.52;2.67;;;22.00;31.90;;;;;;4964292;28;20070;-63
2023/11/10 01:43:15;;;;;;;18.92;2.70;;;22.00;31.90;;;;;;4965912;28;20102;-67
2023/11/10 01:45:45;;;;;;;13.63;2.45;;;21.90;32.20;;;;;;4967188;28;20078;-63
2023/11/10 01:48:13;;;;;;;31.45;3.80;;;21.90;32.20;;;;;;4966134;28;20074;-62
2023/11/10 01:50:43;;;;;;;23.30;3.55;;;21.80;32.50;;;;;;4966522;28;20090;-62
2023/11/10 01:53:11;;;;;;;20.30;3.15;;;21.70;32.70;;;;;;4968513;28;20082;-62
2023/11/10 01:55:38;;;;;;;17.42;2.55;;;21.70;32.80;;;;;;4967893;28;20102;-61
2023/11/10 01:58:06;;;;;;;21.73;2.67;;;21.60;32.90;;;;;;4968639;28;20083;-62
2023/11/10 02:00:33;;;;;;;24.60;3.20;;;21.60;33.10;;;;;;4967202;28;20424;-63
2023/11/10 02:03:03;;;;;;;19.63;3.45;;;21.50;33.30;;;;;;4964730;28;20090;-61
2023/11/10 02:05:31;;;;;;;21.23;2.67;;;21.40;33.70;;;;;;4967699;28;20102;-62
2023/11/10 02:07:58;;;;;;;13.38;3.20;;;21.40;34.00;;;;;;4969683;28;20086;-61
2023/11/10 02:10:24;;;;;;;18.73;2.75;;;21.30;34.00;;;;;;4968664;28;20198;-59
2023/11/10 02:12:53;;;;;;;26.33;3.08;;;21.30;34.30;;;;;;4967481;28;20173;-62
2023/11/10 02:15:20;;;;;;;21.17;3.00;;;21.20;34.50;;;;;;4963062;28;20161;-61
2023/11/10 02:17:47;;;;;;;23.13;2.97;;;21.20;34.80;;;;;;4966171;28;20069;-61
2023/11/10 02:20:14;;;;;;;14.70;2.80;;;21.10;35.20;;;;;;4964649;28;20518;-60
2023/11/10 02:22:44;;;;;;;14.48;2.90;;;21.00;35.40;;;;;;4967884;28;20537;-61
2023/11/10 02:25:15;;;;;;;34.17;15.80;;;20.90;35.90;;;;;;4966600;28;20189;-60
2023/11/10 02:27:42;;;;;;;24.98;13.55;;;20.90;36.00;;;;;;4966885;28;20587;-62
2023/11/10 02:30:10;;;;;;;36.13;15.25;;;20.80;36.60;;;;;;4971544;28;20074;-63
2023/11/10 02:32:36;;;;;;;21.67;3.05;;;20.70;36.60;;;;;;4973332;28;20558;-59
2023/11/10 02:35:08;;;;;;;17.30;2.42;;;20.70;36.90;;;;;;4971844;28;20085;-61
2023/11/10 02:40:10;;;;;;;22.48;2.67;;;20.60;37.50;;;;;;4973822;22;20116;-61
2023/11/10 02:42:37;;;;;;;18.48;3.35;;;20.50;37.80;;;;;;4991117;28;20168;-63
2023/11/10 02:45:05;;;;;;;18.60;2.97;;;20.50;37.80;;;;;;4990390;28;20539;-65
2023/11/10 02:47:33;;;;;;;19.15;3.03;;;20.40;38.00;;;;;;4991328;28;20585;-64
2023/11/10 02:50:00;;;;;;;25.20;2.70;;;20.40;38.70;;;;;;4989534;28;20084;-66
2023/11/10 02:52:26;;;;;;;12.40;2.30;;;20.30;39.10;;;;;;4989622;28;20075;-60
2023/11/10 02:54:53;;;;;;;13.40;3.80;;;20.30;39.20;;;;;;4991797;28;20113;-61
2023/11/10 02:57:21;;;;;;;15.55;3.75;;;20.20;39.20;;;;;;4990641;28;20084;-59
2023/11/10 02:59:48;;;;;;;22.67;3.80;;;20.20;39.70;;;;;;4990092;28;20088;-60
2023/11/10 03:02:15;;;;;;;23.13;4.00;;;20.10;39.90;;;;;;4990371;28;20170;-60
2023/11/10 03:04:41;;;;;;;9.52;3.22;;;20.10;39.80;;;;;;4990214;28;20141;-59
2023/11/10 03:07:09;;;;;;;16.88;3.80;;;20.00;40.30;;;;;;4991700;28;20071;-60
2023/11/10 03:09:35;;;;;;;22.48;3.95;;;19.90;40.80;;;;;;4991966;28;20518;-62
2023/11/10 03:12:02;;;;;;;11.40;3.13;;;19.90;40.70;;;;;;4990986;28;20103;-59
2023/11/10 03:14:28;;;;;;;18.92;3.35;;;19.90;41.10;;;;;;4990784;28;20535;-59
2023/11/10 03:16:55;;;;;;;10.10;3.40;;;19.80;41.10;;;;;;4989100;28;20496;-60
2023/11/10 03:19:21;;;;;;;15.50;3.28;;;19.80;41.30;;;;;;4989776;28;20114;-60
2023/11/10 03:21:48;;;;;;;19.63;3.15;;;19.80;41.60;;;;;;4989750;28;20191;-61
2023/11/10 03:24:14;;;;;;;17.27;3.08;;;19.70;42.50;;;;;;4989098;28;20150;-61
2023/11/10 03:26:41;;;;;;;21.92;4.22;;;19.60;42.10;;;;;;4990538;28;20627;-59
2023/11/10 03:29:07;;;;;;;18.80;3.33;;;19.50;42.10;;;;;;4990243;28;20080;-60
2023/11/10 03:31:35;;;;;;;15.65;2.95;;;19.50;42.30;;;;;;4990097;28;20578;-59
2023/11/10 03:34:02;;;;;;;21.58;2.67;;;19.50;42.50;;;;;;4987874;28;20476;-64
2023/11/10 03:36:29;;;;;;;19.92;3.40;;;19.40;42.90;;;;;;4989703;28;20155;-60
2023/11/10 03:38:55;;;;;;;14.52;2.40;;;19.30;43.30;;;;;;4988167;28;20108;-60
2023/11/10 03:41:22;;;;;;;16.60;2.88;;;19.20;43.90;;;;;;4988222;28;20548;-62
2023/11/10 03:43:48;;;;;;;22.30;3.25;;;19.20;44.20;;;;;;4987976;28;20467;-61
2023/11/10 03:46:15;;;;;;;17.70;2.60;;;19.10;44.50;;;;;;4989580;28;20091;-62
2023/11/10 03:48:41;;;;;;;26.13;3.60;;;19.00;44.80;;;;;;4989289;28;20076;-62
2023/11/10 03:51:11;;;;;;;24.30;3.38;;;19.00;45.00;;;;;;4987144;28;20119;-61
2023/11/10 03:53:41;;;;;;;19.90;3.40;;;19.00;45.20;;;;;;4986769;28;20496;-61
2023/11/10 03:56:08;;;;;;;13.85;3.65;;;18.90;45.90;;;;;;4987885;28;20091;-61
2023/11/10 03:58:35;;;;;;;20.25;3.45;;;18.80;45.40;;;;;;4990438;28;20110;-62
2023/11/10 04:01:02;;;;;;;26.73;3.92;;;18.70;46.00;;;;;;4989059;28;20080;-61
2023/11/10 04:03:28;;;;;;;17.08;3.65;;;18.60;46.00;;;;;;4989700;28;20116;-61
2023/11/10 04:05:54;;;;;;;28.55;4.88;;;18.60;46.20;;;;;;4988009;28;20091;-60
2023/11/10 04:08:21;;;;;;;38.58;4.18;;;18.50;45.60;;;;;;4987971;28;20081;-64
2023/11/10 04:10:48;;;;;;;27.42;5.00;;;18.50;45.70;;;;;;4988073;28;20139;-62
2023/11/10 04:13:14;;;;;;;42.00;5.53;;;18.40;45.80;;;;;;4988264;28;20079;-62
2023/11/10 04:15:41;;;;;;;36.72;5.55;;;18.30;45.80;;;;;;4989179;28;20088;-61
2023/11/10 04:18:07;;;;;;;35.83;9.23;;;18.30;45.80;;;;;;4986661;28;20077;-62
2023/11/10 04:20:34;;;;;;;47.53;10.63;;;18.30;45.40;;;;;;4988237;28;20544;-60
2023/11/10 04:23:01;;;;;;;43.20;9.63;;;18.30;45.00;;;;;;4987637;28;20081;-62
2023/11/10 04:25:29;;;;;;;42.70;9.15;;;18.20;44.90;;;;;;4988444;28;20477;-62
2023/11/10 04:27:56;;;;;;;40.38;8.45;;;18.20;44.80;;;;;;4988447;28;20484;-59
2023/11/10 04:30:22;;;;;;;35.80;8.98;;;18.10;44.60;;;;;;4988904;28;20089;-62
2023/11/10 04:32:49;;;;;;;46.55;10.68;;;18.10;44.60;;;;;;4989835;28;20088;-62
2023/11/10 04:35:15;;;;;;;46.85;10.50;;;18.00;44.50;;;;;;4987813;28;20076;-60
2023/11/10 04:37:42;;;;;;;47.95;10.82;;;18.00;44.20;;;;;;4988606;28;20075;-61
2023/11/10 04:40:11;;;;;;;37.95;11.38;;;17.90;44.40;;;;;;4984076;28;20561;-61
2023/11/10 04:42:41;;;;;;;41.63;10.10;;;17.90;44.50;;;;;;4988701;28;20077;-62
2023/11/10 04:45:08;;;;;;;49.88;10.18;;;17.80;44.70;;;;;;4987877;28;20093;-62
2023/11/10 04:47:35;;;;;;;42.60;8.32;;;17.80;44.90;;;;;;4986831;28;20087;-61
2023/11/10 04:50:02;;;;;;;47.10;7.75;;;17.70;44.80;;;;;;4985772;28;20116;-61
2023/11/10 04:52:29;;;;;;;59.42;8.52;;;17.70;44.90;;;;;;4987919;28;20077;-59
2023/11/10 04:54:55;;;;;;;43.60;9.32;;;17.60;44.90;;;;;;4988199;28;20092;-62
2023/11/10 04:57:23;;;;;;;44.05;8.48;;;17.50;45.00;;;;;;4986927;28;20593;-63
2023/11/10 04:59:53;;;;;;;39.95;9.10;;;17.50;45.30;;;;;;4988380;28;20135;-61
2023/11/10 05:02:20;;;;;;;59.60;9.73;;;17.40;46.20;;;;;;4986990;28;20422;-62
2023/11/10 05:04:47;;;;;;;72.10;10.90;;;17.40;46.60;;;;;;4987485;28;20093;-62
2023/11/10 05:07:14;;;;;;;59.85;11.73;;;17.30;46.40;;;;;;4987023;28;20072;-62
2023/11/10 05:09:40;;;;;;;72.20;11.57;;;17.20;46.50;;;;;;4992753;28;20168;-61
2023/11/10 05:12:07;;;;;;;58.60;11.05;;;17.10;46.60;;;;;;4987539;28;20073;-62
2023/11/10 05:14:39;;;;;;;52.58;10.82;;;17.10;46.90;;;;;;4987467;28;20549;-61
2023/11/10 05:17:06;;;;;;;77.03;12.75;;;17.00;47.00;;;;;;4987913;28;20088;-61
2023/11/10 05:19:33;;;;;;;63.13;13.07;;;17.00;47.00;;;;;;4987639;28;20092;-60
2023/11/10 05:21:59;;;;;;;63.00;13.52;;;17.00;46.40;;;;;;4988134;28;20164;-62
2023/11/10 05:24:26;;;;;;;48.83;11.20;;;17.00;46.10;;;;;;4989712;28;20094;-61
2023/11/10 05:26:52;;;;;;;61.03;18.13;;;17.00;45.10;;;;;;4986290;28;20084;-61
2023/11/10 05:29:20;;;;;;;70.10;15.02;;;17.00;44.80;;;;;;4987632;28;20080;-61
2023/11/10 05:31:47;;;;;;;68.82;14.77;;;17.10;44.80;;;;;;4987818;28;20084;-59
2023/11/10 05:34:16;;;;;;;52.38;12.85;;;17.10;44.50;;;;;;4987515;28;20576;-61
2023/11/10 05:36:43;;;;;;;41.17;10.07;;;17.10;44.30;;;;;;4987699;28;20565;-62
2023/11/10 05:39:10;;;;;;;38.08;9.02;;;17.10;44.40;;;;;;4984280;28;20104;-62
2023/11/10 05:41:39;;;;;;;31.92;8.40;;;17.10;44.10;;;;;;4988567;28;20088;-65
2023/11/10 05:44:05;;;;;;;29.83;11.60;;;17.10;44.20;;;;;;4988011;28;20123;-63
2023/11/10 05:46:32;;;;;;;36.92;12.32;;;17.10;44.20;;;;;;4987490;28;20092;-58
2023/11/10 05:48:59;;;;;;;23.42;9.00;;;17.10;44.30;;;;;;4986132;28;20082;-61
2023/11/10 05:51:26;;;;;;;28.45;7.95;;;17.10;44.50;;;;;;4987653;28;20483;-62
2023/11/10 05:53:52;;;;;;;23.38;5.88;;;17.10;44.40;;;;;;4986565;28;20132;-62
2023/11/10 05:56:19;;;;;;;28.77;6.00;;;17.20;44.50;;;;;;4987462;28;20072;-62
2023/11/10 05:58:45;;;;;;;17.23;4.93;;;17.10;44.40;;;;;;4984923;28;20077;-63
2023/11/10 06:01:12;;;;;;;22.80;4.95;;;17.10;44.70;;;;;;4988350;28;20215;-62
2023/11/10 06:03:39;;;;;;;21.25;4.65;;;17.10;44.70;;;;;;4988840;28;20103;-58
2023/11/10 06:06:05;;;;;;;14.75;3.50;;;17.20;44.40;;;;;;4992568;28;20139;-61
2023/11/10 06:08:36;;;;;;;13.57;3.30;;;17.20;44.40;;;;;;4991550;28;20104;-60
2023/11/10 06:11:04;;;;;;;15.88;2.33;;;17.30;44.40;;;;;;4991965;28;20155;-60
2023/11/10 06:13:31;;;;;;;13.43;2.63;;;17.30;43.80;;;;;;4989248;28;20167;-63
2023/11/10 06:15:59;;;;;;;17.67;2.60;;;17.40;43.20;;;;;;4989479;28;20084;-63
2023/11/10 06:18:25;;;;;;;13.00;4.60;;;17.50;43.40;;;;;;4989899;28;20168;-60
2023/11/10 06:20:52;;;;;;;11.63;5.03;;;17.50;42.40;;;;;;4990824;28;20087;-61
2023/11/10 06:23:19;;;;;;;15.68;3.80;;;17.50;41.70;;;;;;4989798;28;20112;-58
2023/11/10 06:25:45;;;;;;;10.63;2.78;;;17.60;40.40;;;;;;4991045;28;20073;-62
2023/11/10 06:28:11;;;;;;;12.27;3.72;;;17.60;39.20;;;;;;4992003;28;20112;-62
2023/11/10 06:30:38;;;;;;;11.82;2.47;;;17.70;38.60;;;;;;4989226;28;20585;-60
2023/11/10 06:33:04;;;;;;;17.67;3.83;;;17.70;37.70;;;;;;4991960;28;20090;-60
2023/11/10 06:35:31;;;;;;;16.77;4.57;;;17.70;37.50;;;;;;4990149;28;20109;-63
2023/11/10 06:37:58;;;;;;;11.32;2.40;;;17.60;37.80;;;;;;4990309;28;20081;-62
2023/11/10 06:40:25;;;;;;;15.13;2.92;;;17.70;37.50;;;;;;4988637;28;20099;-62
2023/11/10 06:42:51;;;;;;;17.40;2.70;;;17.70;37.40;;;;;;4989715;28;20106;-62
2023/11/10 06:45:18;;;;;;;13.32;2.72;;;17.70;37.10;;;;;;4991032;28;20092;-60
2023/11/10 06:47:44;;;;;;;11.43;2.42;;;17.70;37.10;;;;;;4990348;28;20156;-62
2023/11/10 06:50:11;;;;;;;11.38;2.70;;;17.60;37.30;;;;;;4987799;28;20081;-61
2023/11/10 06:52:37;;;;;;;12.98;3.40;;;17.60;37.20;;;;;;4988853;28;20139;-62
2023/11/10 06:55:07;;;;;;;20.33;4.05;;;17.50;37.40;;;;;;4991309;28;20115;-62
2023/11/10 06:57:34;;;;;;;12.63;2.80;;;17.40;37.80;;;;;;4987709;28;20085;-59
2023/11/10 07:00:00;;;;;;;18.88;3.65;;;17.40;38.30;;;;;;4990107;28;20089;-58
2023/11/10 07:02:27;;;;;;;25.58;3.20;;;17.30;38.70;;;;;;4991232;28;20082;-60
2023/11/10 07:04:54;;;;;;;26.88;4.00;;;17.10;38.90;;;;;;4989053;28;20100;-59
2023/11/10 07:07:21;;;;;;;16.67;4.38;;;17.10;39.10;;;;;;4989881;28;20083;-60
2023/11/10 07:09:48;;;;;;;24.08;4.72;;;17.10;39.20;;;;;;4992821;28;20073;-58
2023/11/10 07:12:15;;;;;;;19.27;5.43;;;17.00;38.40;;;;;;4988847;28;20107;-60
2023/11/10 07:14:42;;;;;;;23.60;5.03;;;16.90;37.70;;;;;;4988836;28;20436;-57
2023/11/10 07:17:09;;;;;;;25.63;5.82;;;16.90;37.60;;;;;;4988571;28;20079;-58
2023/11/10 07:19:35;;;;;;;25.40;5.28;;;16.90;37.80;;;;;;4989340;28;20108;-58
2023/11/10 07:22:02;;;;;;;19.80;5.53;;;16.80;38.20;;;;;;4988071;28;20120;-59
2023/11/10 07:24:28;;;;;;;16.75;6.28;;;16.80;38.10;;;;;;4989918;28;20092;-57
2023/11/10 07:26:55;;;;;;;25.92;7.22;;;16.70;37.90;;;;;;4988541;28;20090;-59
2023/11/10 07:29:22;;;;;;;26.15;6.43;;;16.70;37.70;;;;;;4989754;28;20096;-57
2023/11/10 07:31:48;;;;;;;26.92;6.43;;;16.70;37.80;;;;;;4988385;28;20073;-59
2023/11/10 07:34:15;;;;;;;24.63;6.68;;;16.70;37.90;;;;;;4989303;28;20725;-61
2023/11/10 07:36:42;;;;;;;26.48;7.25;;;16.60;38.00;;;;;;4988493;28;20565;-58
2023/11/10 07:39:08;;;;;;;30.25;7.13;;;16.60;38.10;;;;;;4986805;28;20719;-57
2023/11/10 07:41:34;;;;;;;37.60;8.05;;;16.50;37.90;;;;;;4990142;28;20102;-59
2023/11/10 07:44:01;;;;;;;29.23;7.40;;;16.50;37.10;;;;;;4987337;28;21383;-57
2023/11/10 07:46:27;;;;;;;27.95;7.72;;;16.50;36.80;;;;;;4988569;28;20140;-57
2023/11/10 07:48:54;;;;;;;36.53;7.20;;;16.50;37.20;;;;;;4989793;28;20078;-58
2023/11/10 07:51:20;;;;;;;24.10;7.35;;;16.50;36.30;;;;;;4989600;28;20123;-59
2023/11/10 07:53:47;;;;;;;27.48;6.75;;;16.40;35.40;;;;;;4990972;28;20089;-60
2023/11/10 07:56:13;;;;;;;20.23;6.28;;;16.50;35.20;;;;;;4988507;28;20089;-57
2023/11/10 07:58:39;;;;;;;20.13;6.05;;;16.40;34.40;;;;;;4990254;28;20421;-58
2023/11/10 08:01:06;;;;;;;17.38;6.00;;;16.50;33.90;;;;;;4989633;28;20506;-56
2023/11/10 08:03:33;;;;;;;21.13;6.68;;;16.50;33.70;;;;;;4987163;28;20128;-61
2023/11/10 08:05:59;;;;;;;19.83;6.18;;;16.50;33.30;;;;;;4990091;28;20081;-57
2023/11/10 08:08:26;;;;;;;14.85;5.20;;;16.50;33.00;;;;;;4991061;28;20099;-59
2023/11/10 08:10:52;;;;;;;19.08;6.28;;;16.50;33.00;;;;;;4987873;28;20082;-59
2023/11/10 08:13:19;;;;;;;13.32;5.00;;;16.50;32.90;;;;;;4989699;28;20445;-57
2023/11/10 08:15:45;;;;;;;18.50;5.90;;;16.50;32.70;;;;;;4989115;28;20183;-60
2023/11/10 08:18:12;;;;;;;14.32;4.97;;;16.50;32.60;;;;;;4986755;28;20082;-60
2023/11/10 08:20:39;;;;;;;17.20;4.00;;;16.50;32.20;;;;;;4988665;28;20464;-60
2023/11/10 08:23:05;;;;;;;12.75;3.50;;;16.50;31.60;;;;;;4988852;28;20076;-58
2023/11/10 08:25:32;;;;;;;11.60;3.20;;;16.50;31.20;;;;;;4988524;28;20096;-58
2023/11/10 08:27:58;;;;;;;18.08;2.55;;;16.40;31.10;;;;;;4987429;28;20130;-54
2023/11/10 08:30:26;;;;;;;12.40;2.10;;;16.50;31.30;;;;;;4989674;28;20116;-56
2023/11/10 08:32:53;;;;;;;6.30;2.08;;;16.50;31.20;;;;;;4987300;28;20077;-58
2023/11/10 08:35:19;;;;;;;8.88;1.70;;;16.50;31.30;;;;;;4989716;28;20084;-62
2023/11/10 08:37:46;;;;;;;9.40;2.10;;;16.50;31.20;;;;;;4987030;28;20499;-58
2023/11/10 08:40:13;;;;;;;12.45;2.45;;;16.50;31.50;;;;;;4987206;28;20116;-59
2023/11/10 08:42:41;;;;;;;10.40;2.63;;;16.50;31.60;;;;;;4989046;28;20088;-57
2023/11/10 08:45:08;;;;;;;8.68;2.22;;;16.50;31.60;;;;;;4987214;28;20092;-58
2023/11/10 08:47:35;;;;;;;11.95;2.40;;;16.50;31.40;;;;;;4984967;28;20072;-59
2023/11/10 08:50:01;;;;;;;9.10;2.00;;;16.50;31.00;;;;;;4985612;28;20084;-59
2023/11/10 08:52:28;;;;;;;9.40;2.25;;;16.50;31.00;;;;;;4985504;28;20477;-60
2023/11/10 08:54:55;;;;;;;14.75;2.40;;;16.50;31.30;;;;;;4985198;28;20094;-62
2023/11/10 08:57:22;;;;;;;9.00;2.10;;;16.40;30.90;;;;;;4985478;28;20477;-58
2023/11/10 08:59:48;;;;;;;10.75;2.20;;;16.40;30.70;;;;;;4986654;28;20086;-58
2023/11/10 09:02:15;;;;;;;14.63;2.65;;;16.30;30.80;;;;;;4984954;28;20276;-60
2023/11/10 09:04:41;;;;;;;16.70;2.78;;;16.30;31.20;;;;;;4987425;28;20086;-58
2023/11/10 09:07:08;;;;;;;12.65;2.35;;;16.30;31.50;;;;;;4985561;28;20108;-58
2023/11/10 09:09:34;;;;;;;7.20;2.30;;;16.20;31.60;;;;;;4986100;28;20078;-57
2023/11/10 09:12:01;;;;;;;11.50;2.20;;;16.20;31.80;;;;;;4985233;28;20085;-59
2023/11/10 09:14:28;;;;;;;8.93;2.33;;;16.20;32.10;;;;;;4986027;28;20469;-59
2023/11/10 09:16:55;;;;;;;3.28;1.60;;;16.10;32.20;;;;;;4985717;28;20120;-60
2023/11/10 09:19:21;;;;;;;10.85;2.25;;;16.10;32.20;;;;;;4985781;28;20172;-59
2023/11/10 09:21:48;;;;;;;11.75;2.25;;;16.10;32.20;;;;;;4986434;28;20093;-58
2023/11/10 09:24:14;;;;;;;9.18;2.40;;;15.90;32.10;;;;;;4983202;28;20828;-58
2023/11/10 09:26:43;;;;;;;9.13;2.58;;;16.00;33.00;;;;;;4985804;28;20112;-59
2023/11/10 09:29:10;;;;;;;9.80;2.33;;;15.90;32.60;;;;;;4988933;28;20089;-59
2023/11/10 09:31:38;;;;;;;9.35;1.80;;;15.90;32.50;;;;;;4985823;28;20105;-58
2023/11/10 09:34:05;;;;;;;4.55;1.50;;;15.80;32.50;;;;;;4987460;28;21214;-57
2023/11/10 09:36:32;;;;;;;7.40;1.95;;;15.90;32.40;;;;;;4988123;28;20448;-59
2023/11/10 09:38:58;;;;;;;2.90;1.48;;;15.80;31.80;;;;;;4984653;28;20590;-59
2023/11/10 09:41:33;;;;;;;8.73;1.58;;;15.90;32.10;;;;;;4988973;28;20092;-60
2023/11/10 09:44:00;;;;;;;17.58;2.35;;;15.80;32.10;;;;;;4985316;28;20108;-60
2023/11/10 09:46:27;;;;;;;8.15;1.88;;;15.90;32.00;;;;;;4987704;28;20078;-59
2023/11/10 09:48:54;;;;;;;13.50;2.30;;;15.90;31.80;;;;;;4986543;28;20073;-57
2023/11/10 09:51:23;;;;;;;7.93;2.67;;;15.90;31.30;;;;;;4987791;28;20083;-59
2023/11/10 09:53:50;;;;;;;14.65;2.63;;;15.90;31.00;;;;;;4985058;28;20553;-61
2023/11/10 09:56:20;;;;;;;7.72;2.15;;;15.90;30.90;;;;;;4986411;28;20176;-61
2023/11/10 09:58:47;;;;;;;11.65;2.10;;;15.90;31.10;;;;;;4988518;28;20085;-54
2023/11/10 10:01:14;;;;;;;10.13;2.53;;;16.00;31.10;;;;;;4985574;28;20583;-60
2023/11/10 10:03:40;;;;;;;9.93;2.63;;;16.00;31.30;;;;;;4987157;28;20121;-61
2023/11/10 10:06:11;;;;;;;10.90;2.75;;;16.00;31.60;;;;;;4987543;28;20132;-60
2023/11/10 10:08:38;;;;;;;8.20;2.53;;;16.00;31.90;;;;;;4985504;28;20100;-60
2023/11/10 10:11:05;;;;;;;9.95;2.53;;;16.10;32.00;;;;;;4987647;28;20112;-60
2023/11/10 10:13:31;;;;;;;10.73;1.70;;;16.10;31.50;;;;;;4985587;28;20086;-56
2023/11/10 10:16:10;;;;;;;8.65;1.48;;;16.20;31.40;;;;;;4989095;28;20081;-56
2023/11/10 10:18:39;;;;;;;5.13;1.20;;;16.30;31.30;;;;;;4986778;28;20095;-54
2023/11/10 10:21:05;;;;;;;6.97;1.25;;;16.40;31.00;;;;;;4987713;28;20503;-58
2023/11/10 10:23:33;;;;;;;5.00;1.20;;;16.40;30.60;;;;;;4985149;28;20098;-59
2023/11/10 10:26:00;;;;;;;2.78;1.05;;;16.40;30.30;;;;;;4986636;28;20136;-55
2023/11/10 10:28:26;;;;;;;8.63;1.20;;;16.40;30.10;;;;;;4988250;28;20604;-58
2023/11/10 10:30:54;;;;;;;6.38;1.60;;;16.50;30.00;;;;;;4985922;28;20183;-59
2023/11/10 10:33:20;;;;;;;9.27;2.10;;;16.50;30.50;;;;;;4988178;28;20640;-57
2023/11/10 10:35:47;;;;;;;12.73;2.88;;;16.40;30.60;;;;;;4985360;28;20139;-58
2023/11/10 10:38:17;;;;;;;11.38;3.33;;;16.40;30.60;;;;;;4985290;28;20617;-56
2023/11/10 10:40:44;;;;;;;14.80;2.55;;;16.30;30.60;;;;;;4984224;28;20446;-60
2023/11/10 10:43:12;;;;;;;8.82;2.20;;;16.20;30.40;;;;;;4986911;28;20124;-60
2023/11/10 10:45:40;;;;;;;7.15;2.15;;;16.10;30.00;;;;;;4984414;28;20774;-56
2023/11/10 10:48:06;;;;;;;10.00;1.92;;;16.20;29.90;;;;;;4988125;28;20135;-57
2023/11/10 10:50:34;;;;;;;4.47;1.88;;;16.10;29.80;;;;;;4985071;28;20087;-58
2023/11/10 10:53:02;;;;;;;6.35;2.17;;;16.10;29.80;;;;;;4991522;28;20123;-56
2023/11/10 10:55:31;;;;;;;8.75;2.05;;;16.10;30.00;;;;;;4990292;28;20453;-63
2023/11/10 10:57:59;;;;;;;4.57;2.10;;;16.10;30.10;;;;;;4990681;28;21749;-63
2023/11/10 11:00:26;;;;;;;7.93;2.20;;;16.10;30.80;;;;;;4990679;28;20080;-61
2023/11/10 11:03:20;;;;;;;8.65;1.90;;;16.10;30.80;;;;;;4989547;28;20089;-62
2023/11/10 11:05:46;;;;;;;7.47;1.90;;;16.10;31.20;;;;;;4976453;28;20131;-62
2023/11/10 11:09:01;;;;;;;4.82;1.83;;;16.10;30.70;;;;;;4991253;28;20099;-60
2023/11/10 11:11:43;;;;;;;8.95;1.63;;;16.10;30.90;;;;;;4989046;28;20084;-60
2023/11/10 11:14:56;;;;;;;10.88;1.92;;;16.10;31.20;;;;;;4990964;28;20077;-60
2023/11/10 11:17:41;;;;;;;9.05;1.70;;;16.10;31.60;;;;;;4988165;28;20108;-60
2023/11/10 11:20:09;;;;;;;11.95;1.55;;;16.00;31.80;;;;;;4989354;28;20082;-60
2023/11/10 11:22:38;;;;;;;5.30;1.88;;;16.00;32.00;;;;;;4989584;28;20545;-61
2023/11/10 11:25:09;;;;;;;5.57;1.60;;;15.90;32.30;;;;;;4989342;28;20100;-60
2023/11/10 11:27:37;;;;;;;11.65;2.33;;;15.90;33.00;;;;;;4989413;28;20135;-60
2023/11/10 11:30:11;;;;;;;14.90;2.15;;;15.80;33.50;;;;;;4990377;28;20077;-60
2023/11/10 11:32:42;;;;;;;6.97;1.75;;;15.70;33.40;;;;;;4988643;28;20085;-61
2023/11/10 11:35:15;;;;;;;6.88;1.92;;;15.60;33.60;;;;;;4989567;28;20112;-62
2023/11/10 11:37:45;;;;;;;6.80;1.83;;;15.50;34.20;;;;;;4990732;28;20156;-61
2023/11/10 11:40:12;;;;;;;7.90;2.08;;;15.40;34.90;;;;;;4987471;28;20510;-62
2023/11/10 11:42:41;;;;;;;11.63;2.58;;;15.30;35.20;;;;;;4990165;28;20077;-59
2023/11/10 11:45:13;;;;;;;8.68;2.20;;;15.20;35.10;;;;;;4987395;28;20117;-61
2023/11/10 11:47:43;;;;;;;5.55;1.95;;;15.20;35.10;;;;;;4990381;28;20092;-63
2023/11/10 11:50:11;;;;;;;7.22;2.10;;;15.10;35.10;;;;;;4988808;28;20164;-59
2023/11/10 11:52:39;;;;;;;8.93;2.00;;;15.00;35.20;;;;;;4988299;28;20086;-60
2023/11/10 11:55:06;;;;;;;17.85;2.90;;;15.00;36.30;;;;;;4987901;28;20449;-64
2023/11/10 11:57:35;;;;;;;11.00;1.90;;;15.10;37.30;;;;;;4986985;28;20628;-61
2023/11/10 12:00:07;;;;;;;7.95;2.38;;;15.00;36.80;;;;;;4988865;28;20089;-63
2023/11/10 12:02:38;;;;;;;5.10;1.90;;;15.00;37.20;;;;;;4989392;28;20089;-62
2023/11/10 12:05:06;;;;;;;10.45;2.05;;;14.90;37.10;;;;;;4988119;28;20093;-60
2023/11/10 12:07:33;;;;;;;4.93;1.60;;;14.90;36.70;;;;;;4988309;28;20085;-61
2023/11/10 12:10:03;;;;;;;9.75;1.80;;;14.80;36.40;;;;;;4988529;28;20081;-63
2023/11/10 12:12:29;;;;;;;5.57;1.63;;;14.70;36.60;;;;;;4987533;28;20626;-59
2023/11/10 12:14:56;;;;;;;9.27;1.98;;;14.70;36.30;;;;;;4989015;28;20085;-61
2023/11/10 12:17:24;;;;;;;7.10;1.70;;;14.70;36.10;;;;;;4988016;28;20148;-61
2023/11/10 12:19:50;;;;;;;10.20;2.08;;;14.80;35.50;;;;;;4988996;28;20144;-62
2023/11/10 12:22:18;;;;;;;;;;;14.90;35.30;;;;;;4987878;28;20078;-60
2023/11/10 12:24:48;;;;;;;6.18;1.73;;;14.90;35.30;;;;;;4988910;28;20008;-60
2023/11/10 12:27:16;;;;;;;16.13;1.77;;;14.90;35.20;;;;;;4987445;28;20522;-60
2023/11/10 12:29:45;;;;;;;8.77;1.80;;;14.90;35.50;;;;;;4988130;28;20073;-62
2023/11/10 12:32:12;;;;;;;7.97;1.70;;;14.90;36.00;;;;;;4988735;28;20113;-60
2023/11/10 12:34:39;;;;;;;6.72;1.90;;;14.80;35.70;;;;;;4988427;28;20086;-59
2023/11/10 12:37:06;;;;;;;6.40;1.95;;;14.80;36.40;;;;;;4988445;28;20093;-61
2023/11/10 12:39:34;;;;;;;9.32;2.10;;;14.80;36.60;;;;;;4986388;28;20145;-59
2023/11/10 12:42:05;;;;;;;8.88;2.25;;;14.80;36.30;;;;;;4987585;28;20120;-61
2023/11/10 12:44:32;;;;;;;8.32;2.28;;;14.70;36.40;;;;;;4988047;28;20197;-60